Charlestown, Indiana
Current Conditions -  °F | °C
As of 4:53 AM on Wednesday 22 Oct 2014 (Local Time) from KLOU Reporting Station
Clear Clear  
Wind Chill: 44°   Ceiling: Unl
Heat Index: 44°   Visibility: 10mi
Dew Point: 40°   Wind: 3mph
Humidity: 85%   Direction: 340°NNW
Pressure: 30.23"   Gusts: NA
Location:  38.44°N, 85.65°W
Report Text: KLOU 220853Z AUTO 34003KT 10SM CLR 07/04 A3023 RMK AO2 SLP236 T00670044 53013
Loading
Personal Weather Stations






























Interactive Weather Map
Tropical Storm Tracking
New forecast layout! Learn more

10-Day Weather Forecast

Advertisements
Track Severe Weather on mobile